Airfield :
LOGIN :

Register | Disclaimer

   EN    FR    IT 

 










Legend :    VFR   Marginal VFR   IFR   Intensive IFR   Very Intensive IFR
Visi :
Ceiling :
>= 8 km
>= 3000ft
5 to 8 km
1000 to 3000 ft
1500m to 5 km
500 to 1000 ft
800 to 1500m
200 to 500 ft
< 800m
< 200 ft
Symbols :   Thunderstorms  Fog  Heavy snow  Heavy precipitations  Wind > 20 kt
SIGMETs :     Misc.  Thunderstorms  Icing  Turbulence  Mountain Waves  Volcanic Ashes







- Airport Elevation : 1475 ft


LSZC - Buochs Stans

CURRENT METAR :
  • 221250Z VRB01KT CAVOK 12/03 Q1015

EXPIRED METARs :
  • 221220Z VRB01KT CAVOK 11/03 Q1015
  • 221150Z AUTO VRB02KT CAVOK 11/03 Q1015
  • 221120Z AUTO VRB02KT CAVOK 10/03 Q1015
  • 221050Z VRB01KT CAVOK 09/02 Q1016
  • 221020Z VRB02KT CAVOK 07/02 Q1016
  • 220950Z VRB02KT CAVOK 06/02 Q1016

TAF TAF LSZC
Valid from the 22 at 12:00 until the 22 at 21:00 UTC


221125Z 2212/2221 VRB03KT CAVOK
No reported NOTAMs for that airfield.



MET'MAP, your aeronautical weather chart ! - Copyright ORBIFLY December 2007 - Disclaimer

ORBIFLY MET'MAP TEAM :

Programming & Development : Alexandra Zaïnal
Concept & Development : Baudouin d'Aumeries
Co-Development & Prog : Marc-Olivier Méhu
Technical & hardware support : Manuel Goepfert

Contact : metmap@orbifly.com




SOURCES & CREDITS :

   NOAA